sensor_id;sensor_type;location;lat;lon;timestamp;temperature;humidity
9209;DHT22;4639;48.862;9.188;2023-12-20T00:01:47;7.30;99.90
9209;DHT22;4639;48.862;9.188;2023-12-20T00:04:12;7.30;99.90
9209;DHT22;4639;48.862;9.188;2023-12-20T00:06:38;7.40;99.90
9209;DHT22;4639;48.862;9.188;2023-12-20T00:09:03;7.30;99.90
9209;DHT22;4639;48.862;9.188;2023-12-20T00:11:29;7.40;99.90
9209;DHT22;4639;48.862;9.188;2023-12-20T00:13:54;7.40;99.90
9209;DHT22;4639;48.862;9.188;2023-12-20T00:16:20;7.40;99.90
9209;DHT22;4639;48.862;9.188;2023-12-20T00:18:45;7.50;99.90
9209;DHT22;4639;48.862;9.188;2023-12-20T00:21:11;7.60;99.90
9209;DHT22;4639;48.862;9.188;2023-12-20T00:23:37;7.60;99.90
9209;DHT22;4639;48.862;9.188;2023-12-20T00:26:02;7.60;99.90
9209;DHT22;4639;48.862;9.188;2023-12-20T00:28:28;7.50;99.90
9209;DHT22;4639;48.862;9.188;2023-12-20T00:30:53;7.50;99.90
9209;DHT22;4639;48.862;9.188;2023-12-20T00:33:19;7.50;99.90
9209;DHT22;4639;48.862;9.188;2023-12-20T00:35:44;7.50;99.90
9209;DHT22;4639;48.862;9.188;2023-12-20T00:38:10;7.50;99.90
9209;DHT22;4639;48.862;9.188;2023-12-20T00:40:37;7.60;99.90
9209;DHT22;4639;48.862;9.188;2023-12-20T00:43:02;7.60;99.90
9209;DHT22;4639;48.862;9.188;2023-12-20T00:45:28;7.60;99.90
9209;DHT22;4639;48.862;9.188;2023-12-20T00:47:54;7.60;99.90
9209;DHT22;4639;48.862;9.188;2023-12-20T00:50:19;7.50;99.90
9209;DHT22;4639;48.862;9.188;2023-12-20T00:52:47;7.40;99.90
9209;DHT22;4639;48.862;9.188;2023-12-20T00:55:12;7.40;99.90
9209;DHT22;4639;48.862;9.188;2023-12-20T00:57:38;7.40;99.90
9209;DHT22;4639;48.862;9.188;2023-12-20T01:00:04;7.40;99.90
9209;DHT22;4639;48.862;9.188;2023-12-20T01:02:30;7.40;99.90
9209;DHT22;4639;48.862;9.188;2023-12-20T01:04:56;7.30;99.90
9209;DHT22;4639;48.862;9.188;2023-12-20T01:07:21;7.20;99.90
9209;DHT22;4639;48.862;9.188;2023-12-20T01:09:47;7.20;99.90
9209;DHT22;4639;48.862;9.188;2023-12-20T01:12:12;7.20;99.90
9209;DHT22;4639;48.862;9.188;2023-12-20T01:14:38;7.30;99.90
9209;DHT22;4639;48.862;9.188;2023-12-20T01:17:04;7.20;99.90
9209;DHT22;4639;48.862;9.188;2023-12-20T01:19:30;7.10;99.90
9209;DHT22;4639;48.862;9.188;2023-12-20T01:21:55;7.00;99.90
9209;DHT22;4639;48.862;9.188;2023-12-20T01:24:21;7.00;99.90
9209;DHT22;4639;48.862;9.188;2023-12-20T01:26:47;7.00;99.90
9209;DHT22;4639;48.862;9.188;2023-12-20T01:29:12;6.90;99.90
9209;DHT22;4639;48.862;9.188;2023-12-20T01:31:39;6.80;99.90
9209;DHT22;4639;48.862;9.188;2023-12-20T01:34:06;6.70;99.90
9209;DHT22;4639;48.862;9.188;2023-12-20T01:36:31;6.70;99.90
9209;DHT22;4639;48.862;9.188;2023-12-20T01:38:57;6.70;99.90
9209;DHT22;4639;48.862;9.188;2023-12-20T01:41:22;6.60;99.90
9209;DHT22;4639;48.862;9.188;2023-12-20T01:43:48;6.60;99.90
9209;DHT22;4639;48.862;9.188;2023-12-20T01:46:14;6.60;99.90
9209;DHT22;4639;48.862;9.188;2023-12-20T01:48:40;6.50;99.90
9209;DHT22;4639;48.862;9.188;2023-12-20T01:51:06;6.60;99.90
9209;DHT22;4639;48.862;9.188;2023-12-20T01:53:32;6.60;99.90
9209;DHT22;4639;48.862;9.188;2023-12-20T01:55:58;6.70;99.90
9209;DHT22;4639;48.862;9.188;2023-12-20T01:58:24;6.80;99.90
9209;DHT22;4639;48.862;9.188;2023-12-20T02:00:51;6.90;99.90
9209;DHT22;4639;48.862;9.188;2023-12-20T02:03:18;6.90;99.90
9209;DHT22;4639;48.862;9.188;2023-12-20T02:05:44;6.80;99.90
9209;DHT22;4639;48.862;9.188;2023-12-20T02:08:11;6.70;99.90
9209;DHT22;4639;48.862;9.188;2023-12-20T02:10:36;6.70;99.90
9209;DHT22;4639;48.862;9.188;2023-12-20T02:13:03;6.80;99.90
9209;DHT22;4639;48.862;9.188;2023-12-20T02:15:29;6.80;99.90
9209;DHT22;4639;48.862;9.188;2023-12-20T02:17:55;6.90;99.90
9209;DHT22;4639;48.862;9.188;2023-12-20T02:20:21;6.90;99.90
9209;DHT22;4639;48.862;9.188;2023-12-20T02:22:46;6.90;99.90
9209;DHT22;4639;48.862;9.188;2023-12-20T02:25:12;6.90;99.90
9209;DHT22;4639;48.862;9.188;2023-12-20T02:27:38;6.90;99.90
9209;DHT22;4639;48.862;9.188;2023-12-20T02:30:05;6.90;99.90
9209;DHT22;4639;48.862;9.188;2023-12-20T02:32:31;6.90;99.90
9209;DHT22;4639;48.862;9.188;2023-12-20T02:34:57;6.90;99.90
9209;DHT22;4639;48.862;9.188;2023-12-20T02:37:22;6.90;99.90
9209;DHT22;4639;48.862;9.188;2023-12-20T02:39:48;6.90;99.90
9209;DHT22;4639;48.862;9.188;2023-12-20T02:42:14;6.80;99.90
9209;DHT22;4639;48.862;9.188;2023-12-20T02:44:39;6.80;99.90
9209;DHT22;4639;48.862;9.188;2023-12-20T02:47:05;6.70;99.90
9209;DHT22;4639;48.862;9.188;2023-12-20T02:49:30;6.70;99.90
9209;DHT22;4639;48.862;9.188;2023-12-20T02:51:56;6.60;99.90
9209;DHT22;4639;48.862;9.188;2023-12-20T02:54:21;6.60;99.90
9209;DHT22;4639;48.862;9.188;2023-12-20T02:56:48;6.60;99.90
9209;DHT22;4639;48.862;9.188;2023-12-20T02:59:14;6.70;99.90
9209;DHT22;4639;48.862;9.188;2023-12-20T03:01:44;6.60;99.90
9209;DHT22;4639;48.862;9.188;2023-12-20T03:04:09;6.60;99.90
9209;DHT22;4639;48.862;9.188;2023-12-20T03:06:35;6.60;99.90
9209;DHT22;4639;48.862;9.188;2023-12-20T03:09:01;6.70;99.90
9209;DHT22;4639;48.862;9.188;2023-12-20T03:11:27;6.60;99.90
9209;DHT22;4639;48.862;9.188;2023-12-20T03:13:53;6.60;99.90
9209;DHT22;4639;48.862;9.188;2023-12-20T03:16:18;6.50;99.90
9209;DHT22;4639;48.862;9.188;2023-12-20T03:18:44;6.40;99.90
9209;DHT22;4639;48.862;9.188;2023-12-20T03:21:09;6.40;99.90
9209;DHT22;4639;48.862;9.188;2023-12-20T03:23:35;6.40;99.90
9209;DHT22;4639;48.862;9.188;2023-12-20T03:26:00;6.40;99.90
9209;DHT22;4639;48.862;9.188;2023-12-20T03:28:27;6.30;99.90
9209;DHT22;4639;48.862;9.188;2023-12-20T03:30:52;6.30;99.90
9209;DHT22;4639;48.862;9.188;2023-12-20T03:33:18;6.20;99.90
9209;DHT22;4639;48.862;9.188;2023-12-20T03:35:44;6.20;99.90
9209;DHT22;4639;48.862;9.188;2023-12-20T03:38:09;6.20;99.90
9209;DHT22;4639;48.862;9.188;2023-12-20T03:40:35;6.20;99.90
9209;DHT22;4639;48.862;9.188;2023-12-20T03:43:01;6.20;99.90
9209;DHT22;4639;48.862;9.188;2023-12-20T03:45:26;6.10;99.90
9209;DHT22;4639;48.862;9.188;2023-12-20T03:47:52;6.10;99.90
9209;DHT22;4639;48.862;9.188;2023-12-20T03:50:22;6.30;99.90
9209;DHT22;4639;48.862;9.188;2023-12-20T03:52:48;6.10;99.90
9209;DHT22;4639;48.862;9.188;2023-12-20T03:55:13;6.10;99.90
9209;DHT22;4639;48.862;9.188;2023-12-20T03:57:39;6.10;99.90
9209;DHT22;4639;48.862;9.188;2023-12-20T04:00:06;6.10;99.90
9209;DHT22;4639;48.862;9.188;2023-12-20T04:02:38;6.10;99.90
9209;DHT22;4639;48.862;9.188;2023-12-20T04:05:05;6.20;99.90
9209;DHT22;4639;48.862;9.188;2023-12-20T04:07:31;6.20;99.90
9209;DHT22;4639;48.862;9.188;2023-12-20T04:09:57;6.10;99.90
9209;DHT22;4639;48.862;9.188;2023-12-20T04:12:22;6.10;99.90
9209;DHT22;4639;48.862;9.188;2023-12-20T04:14:48;6.00;99.90
9209;DHT22;4639;48.862;9.188;2023-12-20T04:17:15;6.10;99.90
9209;DHT22;4639;48.862;9.188;2023-12-20T04:19:41;6.10;99.90
9209;DHT22;4639;48.862;9.188;2023-12-20T04:22:07;6.10;99.90
9209;DHT22;4639;48.862;9.188;2023-12-20T04:24:33;6.10;99.90
9209;DHT22;4639;48.862;9.188;2023-12-20T04:26:58;6.00;99.90
9209;DHT22;4639;48.862;9.188;2023-12-20T04:29:24;6.00;99.90
9209;DHT22;4639;48.862;9.188;2023-12-20T04:31:49;6.00;99.90
9209;DHT22;4639;48.862;9.188;2023-12-20T04:34:17;6.00;99.90
9209;DHT22;4639;48.862;9.188;2023-12-20T04:36:42;6.30;99.90
9209;DHT22;4639;48.862;9.188;2023-12-20T04:39:08;6.00;99.90
9209;DHT22;4639;48.862;9.188;2023-12-20T04:41:34;6.00;99.90
9209;DHT22;4639;48.862;9.188;2023-12-20T04:43:59;6.10;99.90
9209;DHT22;4639;48.862;9.188;2023-12-20T04:46:26;6.10;99.90
9209;DHT22;4639;48.862;9.188;2023-12-20T04:48:51;6.10;99.90
9209;DHT22;4639;48.862;9.188;2023-12-20T04:51:17;6.10;99.90
9209;DHT22;4639;48.862;9.188;2023-12-20T04:53:42;6.20;99.90
9209;DHT22;4639;48.862;9.188;2023-12-20T04:56:08;6.20;99.90
9209;DHT22;4639;48.862;9.188;2023-12-20T04:58:33;6.20;99.90
9209;DHT22;4639;48.862;9.188;2023-12-20T05:00:59;6.20;99.90
9209;DHT22;4639;48.862;9.188;2023-12-20T05:03:25;6.20;99.90
9209;DHT22;4639;48.862;9.188;2023-12-20T05:05:50;6.20;99.90
9209;DHT22;4639;48.862;9.188;2023-12-20T05:08:16;6.20;99.90
9209;DHT22;4639;48.862;9.188;2023-12-20T05:10:41;6.20;99.90
9209;DHT22;4639;48.862;9.188;2023-12-20T05:13:07;6.20;99.90
9209;DHT22;4639;48.862;9.188;2023-12-20T05:15:33;6.20;99.90
9209;DHT22;4639;48.862;9.188;2023-12-20T05:17:58;6.20;99.90
9209;DHT22;4639;48.862;9.188;2023-12-20T05:20:24;6.20;99.90
9209;DHT22;4639;48.862;9.188;2023-12-20T05:22:50;6.20;99.90
9209;DHT22;4639;48.862;9.188;2023-12-20T05:25:15;6.30;99.90
9209;DHT22;4639;48.862;9.188;2023-12-20T05:27:41;6.30;99.90
9209;DHT22;4639;48.862;9.188;2023-12-20T05:30:07;6.30;99.90
9209;DHT22;4639;48.862;9.188;2023-12-20T05:32:32;6.20;99.90
9209;DHT22;4639;48.862;9.188;2023-12-20T05:34:58;6.20;99.90
9209;DHT22;4639;48.862;9.188;2023-12-20T05:37:23;6.20;99.90
9209;DHT22;4639;48.862;9.188;2023-12-20T05:39:49;6.20;99.90
9209;DHT22;4639;48.862;9.188;2023-12-20T05:42:16;6.30;99.90
9209;DHT22;4639;48.862;9.188;2023-12-20T05:44:41;6.20;99.90
9209;DHT22;4639;48.862;9.188;2023-12-20T05:47:07;6.20;99.90
9209;DHT22;4639;48.862;9.188;2023-12-20T05:49:32;6.20;99.90
9209;DHT22;4639;48.862;9.188;2023-12-20T05:51:58;6.20;99.90
9209;DHT22;4639;48.862;9.188;2023-12-20T05:54:23;6.20;99.90
9209;DHT22;4639;48.862;9.188;2023-12-20T05:56:49;6.10;99.90
9209;DHT22;4639;48.862;9.188;2023-12-20T05:59:16;6.20;99.90
9209;DHT22;4639;48.862;9.188;2023-12-20T06:01:41;6.20;99.90
9209;DHT22;4639;48.862;9.188;2023-12-20T06:04:07;6.30;99.90
9209;DHT22;4639;48.862;9.188;2023-12-20T06:06:32;6.20;99.90
9209;DHT22;4639;48.862;9.188;2023-12-20T06:08:58;6.20;99.90
9209;DHT22;4639;48.862;9.188;2023-12-20T06:11:24;6.30;99.90
9209;DHT22;4639;48.862;9.188;2023-12-20T06:13:49;6.30;99.90
9209;DHT22;4639;48.862;9.188;2023-12-20T06:16:17;6.30;99.90
9209;DHT22;4639;48.862;9.188;2023-12-20T06:18:43;6.20;99.90
9209;DHT22;4639;48.862;9.188;2023-12-20T06:21:09;6.30;99.90
9209;DHT22;4639;48.862;9.188;2023-12-20T06:23:38;6.30;99.90
9209;DHT22;4639;48.862;9.188;2023-12-20T06:26:03;6.30;99.90
9209;DHT22;4639;48.862;9.188;2023-12-20T06:28:29;6.20;99.90
9209;DHT22;4639;48.862;9.188;2023-12-20T06:30:54;6.20;99.90
9209;DHT22;4639;48.862;9.188;2023-12-20T06:33:20;6.20;99.90
9209;DHT22;4639;48.862;9.188;2023-12-20T06:35:48;6.30;99.90
9209;DHT22;4639;48.862;9.188;2023-12-20T06:38:13;6.20;99.90
9209;DHT22;4639;48.862;9.188;2023-12-20T06:40:39;6.20;99.90
9209;DHT22;4639;48.862;9.188;2023-12-20T06:43:04;6.30;99.90
9209;DHT22;4639;48.862;9.188;2023-12-20T06:45:32;6.40;99.90
9209;DHT22;4639;48.862;9.188;2023-12-20T06:47:57;6.40;99.90
9209;DHT22;4639;48.862;9.188;2023-12-20T06:50:23;6.40;99.90
9209;DHT22;4639;48.862;9.188;2023-12-20T06:52:49;6.30;99.90
9209;DHT22;4639;48.862;9.188;2023-12-20T06:55:15;6.30;99.90
9209;DHT22;4639;48.862;9.188;2023-12-20T06:57:40;6.20;99.90
9209;DHT22;4639;48.862;9.188;2023-12-20T07:00:07;6.30;99.90
9209;DHT22;4639;48.862;9.188;2023-12-20T07:02:33;6.40;99.90
9209;DHT22;4639;48.862;9.188;2023-12-20T07:04:59;6.30;99.90
9209;DHT22;4639;48.862;9.188;2023-12-20T07:07:25;6.40;99.90
9209;DHT22;4639;48.862;9.188;2023-12-20T07:09:51;6.30;99.90
9209;DHT22;4639;48.862;9.188;2023-12-20T07:12:17;6.30;99.90
9209;DHT22;4639;48.862;9.188;2023-12-20T07:14:45;6.40;99.90
9209;DHT22;4639;48.862;9.188;2023-12-20T07:17:11;6.40;99.90
9209;DHT22;4639;48.862;9.188;2023-12-20T07:19:39;6.40;99.90
9209;DHT22;4639;48.862;9.188;2023-12-20T07:22:06;6.30;99.90
9209;DHT22;4639;48.862;9.188;2023-12-20T07:24:32;6.30;99.90
9209;DHT22;4639;48.862;9.188;2023-12-20T07:26:58;6.30;99.90
9209;DHT22;4639;48.862;9.188;2023-12-20T07:29:24;6.20;99.90
9209;DHT22;4639;48.862;9.188;2023-12-20T07:31:49;6.20;99.90
9209;DHT22;4639;48.862;9.188;2023-12-20T07:34:17;6.20;99.90
9209;DHT22;4639;48.862;9.188;2023-12-20T07:36:43;6.20;99.90
9209;DHT22;4639;48.862;9.188;2023-12-20T07:39:08;6.20;99.90
9209;DHT22;4639;48.862;9.188;2023-12-20T07:41:34;6.30;99.90
9209;DHT22;4639;48.862;9.188;2023-12-20T07:43:59;6.30;99.90
9209;DHT22;4639;48.862;9.188;2023-12-20T07:46:25;6.30;99.90
9209;DHT22;4639;48.862;9.188;2023-12-20T07:48:51;6.30;99.90
9209;DHT22;4639;48.862;9.188;2023-12-20T07:51:16;6.20;99.90
9209;DHT22;4639;48.862;9.188;2023-12-20T07:53:42;6.30;99.90
9209;DHT22;4639;48.862;9.188;2023-12-20T07:56:18;6.20;99.90
9209;DHT22;4639;48.862;9.188;2023-12-20T07:58:44;6.20;99.90
9209;DHT22;4639;48.862;9.188;2023-12-20T08:01:11;6.10;99.90
9209;DHT22;4639;48.862;9.188;2023-12-20T08:03:36;6.10;99.90
9209;DHT22;4639;48.862;9.188;2023-12-20T08:06:02;6.00;99.90
9209;DHT22;4639;48.862;9.188;2023-12-20T08:08:28;5.90;99.90
9209;DHT22;4639;48.862;9.188;2023-12-20T08:10:54;5.90;99.90
9209;DHT22;4639;48.862;9.188;2023-12-20T08:13:19;5.80;99.90
9209;DHT22;4639;48.862;9.188;2023-12-20T08:15:45;5.80;99.90
9209;DHT22;4639;48.862;9.188;2023-12-20T08:18:10;5.80;99.90
9209;DHT22;4639;48.862;9.188;2023-12-20T08:20:36;5.90;99.90
9209;DHT22;4639;48.862;9.188;2023-12-20T08:23:02;5.80;99.90
9209;DHT22;4639;48.862;9.188;2023-12-20T08:25:28;5.80;99.90
9209;DHT22;4639;48.862;9.188;2023-12-20T08:27:53;6.00;99.90
9209;DHT22;4639;48.862;9.188;2023-12-20T08:30:19;6.40;99.90
9209;DHT22;4639;48.862;9.188;2023-12-20T08:32:48;6.60;99.90
9209;DHT22;4639;48.862;9.188;2023-12-20T08:35:13;6.50;99.90
9209;DHT22;4639;48.862;9.188;2023-12-20T08:37:39;6.70;99.90
9209;DHT22;4639;48.862;9.188;2023-12-20T08:40:05;6.80;99.90
9209;DHT22;4639;48.862;9.188;2023-12-20T08:42:31;7.00;99.90
9209;DHT22;4639;48.862;9.188;2023-12-20T08:44:57;7.20;99.90
9209;DHT22;4639;48.862;9.188;2023-12-20T08:47:24;7.50;99.90
9209;DHT22;4639;48.862;9.188;2023-12-20T08:49:49;7.70;99.90
9209;DHT22;4639;48.862;9.188;2023-12-20T08:52:15;7.70;99.90
9209;DHT22;4639;48.862;9.188;2023-12-20T08:54:41;7.90;99.90
9209;DHT22;4639;48.862;9.188;2023-12-20T08:57:06;8.00;99.90
9209;DHT22;4639;48.862;9.188;2023-12-20T08:59:32;8.20;99.90
9209;DHT22;4639;48.862;9.188;2023-12-20T09:01:58;8.30;99.90
9209;DHT22;4639;48.862;9.188;2023-12-20T09:04:23;8.20;99.90
9209;DHT22;4639;48.862;9.188;2023-12-20T09:06:49;8.50;99.90
9209;DHT22;4639;48.862;9.188;2023-12-20T09:09:15;8.80;99.90
9209;DHT22;4639;48.862;9.188;2023-12-20T09:11:40;9.10;99.90
9209;DHT22;4639;48.862;9.188;2023-12-20T09:14:06;9.20;99.90
9209;DHT22;4639;48.862;9.188;2023-12-20T09:16:32;9.00;99.90
9209;DHT22;4639;48.862;9.188;2023-12-20T09:18:58;8.80;99.90
9209;DHT22;4639;48.862;9.188;2023-12-20T09:21:23;8.50;99.90
9209;DHT22;4639;48.862;9.188;2023-12-20T09:23:49;8.40;99.90
9209;DHT22;4639;48.862;9.188;2023-12-20T09:26:15;8.40;99.90
9209;DHT22;4639;48.862;9.188;2023-12-20T09:28:40;8.70;99.90
9209;DHT22;4639;48.862;9.188;2023-12-20T09:31:06;8.60;99.90
9209;DHT22;4639;48.862;9.188;2023-12-20T09:33:33;8.60;99.90
9209;DHT22;4639;48.862;9.188;2023-12-20T09:35:58;8.80;99.90
9209;DHT22;4639;48.862;9.188;2023-12-20T09:38:24;9.20;99.90
9209;DHT22;4639;48.862;9.188;2023-12-20T09:40:50;9.20;99.90
9209;DHT22;4639;48.862;9.188;2023-12-20T09:43:19;8.70;99.90
9209;DHT22;4639;48.862;9.188;2023-12-20T09:45:47;8.20;99.90
9209;DHT22;4639;48.862;9.188;2023-12-20T09:48:13;8.30;99.90
9209;DHT22;4639;48.862;9.188;2023-12-20T09:50:42;8.10;99.90
9209;DHT22;4639;48.862;9.188;2023-12-20T09:53:10;8.00;99.90
9209;DHT22;4639;48.862;9.188;2023-12-20T09:55:38;8.00;99.90
9209;DHT22;4639;48.862;9.188;2023-12-20T09:58:04;8.00;99.90
9209;DHT22;4639;48.862;9.188;2023-12-20T10:00:30;8.20;99.90
9209;DHT22;4639;48.862;9.188;2023-12-20T10:02:59;8.40;99.90
9209;DHT22;4639;48.862;9.188;2023-12-20T10:05:32;8.60;99.90
9209;DHT22;4639;48.862;9.188;2023-12-20T10:07:59;8.60;99.90
9209;DHT22;4639;48.862;9.188;2023-12-20T10:10:25;8.60;99.90
9209;DHT22;4639;48.862;9.188;2023-12-20T10:13:06;8.50;99.90
9209;DHT22;4639;48.862;9.188;2023-12-20T10:15:36;8.70;99.90
9209;DHT22;4639;48.862;9.188;2023-12-20T10:18:03;8.60;99.90
9209;DHT22;4639;48.862;9.188;2023-12-20T10:20:30;8.30;99.90
9209;DHT22;4639;48.862;9.188;2023-12-20T10:22:56;8.50;99.90
9209;DHT22;4639;48.862;9.188;2023-12-20T10:25:23;8.80;99.90
9209;DHT22;4639;48.862;9.188;2023-12-20T10:27:50;8.40;99.90
9209;DHT22;4639;48.862;9.188;2023-12-20T10:30:16;8.00;99.90
9209;DHT22;4639;48.862;9.188;2023-12-20T10:32:41;8.40;99.90
9209;DHT22;4639;48.862;9.188;2023-12-20T10:35:08;8.90;99.90
9209;DHT22;4639;48.862;9.188;2023-12-20T10:37:37;8.60;99.90
9209;DHT22;4639;48.862;9.188;2023-12-20T10:40:04;8.00;99.90
9209;DHT22;4639;48.862;9.188;2023-12-20T10:42:31;7.70;99.90
9209;DHT22;4639;48.862;9.188;2023-12-20T10:44:59;7.80;99.90
9209;DHT22;4639;48.862;9.188;2023-12-20T10:47:25;8.00;99.90
9209;DHT22;4639;48.862;9.188;2023-12-20T10:49:52;8.30;99.90
9209;DHT22;4639;48.862;9.188;2023-12-20T10:52:18;8.10;99.90
9209;DHT22;4639;48.862;9.188;2023-12-20T10:54:45;8.00;99.90
9209;DHT22;4639;48.862;9.188;2023-12-20T10:57:11;8.40;99.90
9209;DHT22;4639;48.862;9.188;2023-12-20T10:59:38;8.60;99.90
9209;DHT22;4639;48.862;9.188;2023-12-20T11:02:05;8.80;99.90
9209;DHT22;4639;48.862;9.188;2023-12-20T11:04:38;9.00;99.90
9209;DHT22;4639;48.862;9.188;2023-12-20T11:07:20;8.80;99.90
9209;DHT22;4639;48.862;9.188;2023-12-20T11:09:58;8.80;99.90
9209;DHT22;4639;48.862;9.188;2023-12-20T11:12:37;8.70;99.90
9209;DHT22;4639;48.862;9.188;2023-12-20T11:15:05;8.50;99.90
9209;DHT22;4639;48.862;9.188;2023-12-20T11:17:32;8.50;99.90
9209;DHT22;4639;48.862;9.188;2023-12-20T11:22:33;8.10;99.90
9209;DHT22;4639;48.862;9.188;2023-12-20T11:25:04;8.00;99.90
9209;DHT22;4639;48.862;9.188;2023-12-20T11:27:31;7.90;99.90
9209;DHT22;4639;48.862;9.188;2023-12-20T11:29:58;7.70;99.90
9209;DHT22;4639;48.862;9.188;2023-12-20T11:35:00;7.20;99.90
9209;DHT22;4639;48.862;9.188;2023-12-20T11:37:30;7.20;99.90
9209;DHT22;4639;48.862;9.188;2023-12-20T11:40:06;7.10;99.90
9209;DHT22;4639;48.862;9.188;2023-12-20T11:42:33;7.00;99.90
9209;DHT22;4639;48.862;9.188;2023-12-20T11:45:03;7.00;99.90
9209;DHT22;4639;48.862;9.188;2023-12-20T11:47:30;6.90;99.90
9209;DHT22;4639;48.862;9.188;2023-12-20T11:49:56;6.80;99.90
9209;DHT22;4639;48.862;9.188;2023-12-20T11:52:22;6.80;99.90
9209;DHT22;4639;48.862;9.188;2023-12-20T11:54:47;6.80;99.90
9209;DHT22;4639;48.862;9.188;2023-12-20T11:57:13;6.80;99.90
9209;DHT22;4639;48.862;9.188;2023-12-20T11:59:39;6.70;99.90
9209;DHT22;4639;48.862;9.188;2023-12-20T12:02:05;6.60;99.90
9209;DHT22;4639;48.862;9.188;2023-12-20T12:04:31;6.60;99.90
9209;DHT22;4639;48.862;9.188;2023-12-20T12:06:56;6.50;99.90
9209;DHT22;4639;48.862;9.188;2023-12-20T12:09:22;6.60;99.90
9209;DHT22;4639;48.862;9.188;2023-12-20T12:11:48;6.70;99.90
9209;DHT22;4639;48.862;9.188;2023-12-20T12:14:13;6.70;99.90
9209;DHT22;4639;48.862;9.188;2023-12-20T12:16:41;6.80;99.90
9209;DHT22;4639;48.862;9.188;2023-12-20T12:19:14;6.90;99.90
9209;DHT22;4639;48.862;9.188;2023-12-20T12:21:45;7.00;99.90
9209;DHT22;4639;48.862;9.188;2023-12-20T12:24:10;6.90;99.90
9209;DHT22;4639;48.862;9.188;2023-12-20T12:26:36;7.00;99.90
9209;DHT22;4639;48.862;9.188;2023-12-20T12:29:03;7.10;99.90
9209;DHT22;4639;48.862;9.188;2023-12-20T12:31:28;7.30;99.90
9209;DHT22;4639;48.862;9.188;2023-12-20T12:33:56;7.50;99.90
9209;DHT22;4639;48.862;9.188;2023-12-20T12:36:21;7.70;99.90
9209;DHT22;4639;48.862;9.188;2023-12-20T12:38:47;7.80;99.90
9209;DHT22;4639;48.862;9.188;2023-12-20T12:41:13;7.80;99.90
9209;DHT22;4639;48.862;9.188;2023-12-20T12:43:40;7.80;99.90
9209;DHT22;4639;48.862;9.188;2023-12-20T12:46:07;8.00;99.90
9209;DHT22;4639;48.862;9.188;2023-12-20T12:48:32;8.00;99.90
9209;DHT22;4639;48.862;9.188;2023-12-20T12:50:59;7.70;99.90
9209;DHT22;4639;48.862;9.188;2023-12-20T12:53:25;7.60;99.90
9209;DHT22;4639;48.862;9.188;2023-12-20T12:55:52;7.50;99.90
9209;DHT22;4639;48.862;9.188;2023-12-20T12:58:18;7.40;99.90
9209;DHT22;4639;48.862;9.188;2023-12-20T13:00:44;7.30;99.90
9209;DHT22;4639;48.862;9.188;2023-12-20T13:03:09;7.30;99.90
9209;DHT22;4639;48.862;9.188;2023-12-20T13:05:35;7.20;99.90
9209;DHT22;4639;48.862;9.188;2023-12-20T13:08:00;7.20;99.90
9209;DHT22;4639;48.862;9.188;2023-12-20T13:10:26;7.20;99.90
9209;DHT22;4639;48.862;9.188;2023-12-20T13:12:51;7.20;99.90
9209;DHT22;4639;48.862;9.188;2023-12-20T13:15:17;7.20;99.90
9209;DHT22;4639;48.862;9.188;2023-12-20T13:17:42;7.20;99.90
9209;DHT22;4639;48.862;9.188;2023-12-20T13:20:08;7.30;99.90
9209;DHT22;4639;48.862;9.188;2023-12-20T13:22:34;7.30;99.90
9209;DHT22;4639;48.862;9.188;2023-12-20T13:24:59;7.30;99.90
9209;DHT22;4639;48.862;9.188;2023-12-20T13:27:25;7.20;99.90
9209;DHT22;4639;48.862;9.188;2023-12-20T13:29:50;7.30;99.90
9209;DHT22;4639;48.862;9.188;2023-12-20T13:32:16;7.20;99.90
9209;DHT22;4639;48.862;9.188;2023-12-20T13:34:44;7.10;99.90
9209;DHT22;4639;48.862;9.188;2023-12-20T13:37:09;7.20;99.90
9209;DHT22;4639;48.862;9.188;2023-12-20T13:39:35;7.30;99.90
9209;DHT22;4639;48.862;9.188;2023-12-20T13:42:01;7.50;99.90
9209;DHT22;4639;48.862;9.188;2023-12-20T13:44:26;7.70;99.90
9209;DHT22;4639;48.862;9.188;2023-12-20T13:46:52;7.40;99.90
9209;DHT22;4639;48.862;9.188;2023-12-20T13:49:17;7.40;99.90
9209;DHT22;4639;48.862;9.188;2023-12-20T13:51:43;7.30;99.90
9209;DHT22;4639;48.862;9.188;2023-12-20T13:54:09;7.10;99.90
9209;DHT22;4639;48.862;9.188;2023-12-20T13:56:36;7.00;99.90
9209;DHT22;4639;48.862;9.188;2023-12-20T13:59:01;6.90;99.90
9209;DHT22;4639;48.862;9.188;2023-12-20T14:01:27;6.90;99.90
9209;DHT22;4639;48.862;9.188;2023-12-20T14:03:52;6.90;99.90
9209;DHT22;4639;48.862;9.188;2023-12-20T14:06:18;6.80;99.90
9209;DHT22;4639;48.862;9.188;2023-12-20T14:08:44;6.70;99.90
9209;DHT22;4639;48.862;9.188;2023-12-20T14:11:09;6.70;99.90
9209;DHT22;4639;48.862;9.188;2023-12-20T14:13:36;6.60;99.90
9209;DHT22;4639;48.862;9.188;2023-12-20T14:16:01;6.60;99.90
9209;DHT22;4639;48.862;9.188;2023-12-20T14:18:29;6.70;99.90
9209;DHT22;4639;48.862;9.188;2023-12-20T14:20:55;6.60;99.90
9209;DHT22;4639;48.862;9.188;2023-12-20T14:23:21;6.60;99.90
9209;DHT22;4639;48.862;9.188;2023-12-20T14:25:48;6.50;99.90
9209;DHT22;4639;48.862;9.188;2023-12-20T14:28:14;6.50;99.90
9209;DHT22;4639;48.862;9.188;2023-12-20T14:30:40;6.40;99.90
9209;DHT22;4639;48.862;9.188;2023-12-20T14:33:06;6.30;99.90
9209;DHT22;4639;48.862;9.188;2023-12-20T14:35:32;6.20;99.90
9209;DHT22;4639;48.862;9.188;2023-12-20T14:37:58;6.30;99.90
9209;DHT22;4639;48.862;9.188;2023-12-20T14:40:23;6.20;99.90
9209;DHT22;4639;48.862;9.188;2023-12-20T14:42:49;6.30;99.90
9209;DHT22;4639;48.862;9.188;2023-12-20T14:45:15;6.30;99.90
9209;DHT22;4639;48.862;9.188;2023-12-20T14:47:44;6.20;99.90
9209;DHT22;4639;48.862;9.188;2023-12-20T14:50:09;6.20;99.90
9209;DHT22;4639;48.862;9.188;2023-12-20T14:52:37;6.30;99.90
9209;DHT22;4639;48.862;9.188;2023-12-20T14:55:03;6.30;99.90
9209;DHT22;4639;48.862;9.188;2023-12-20T14:57:29;6.30;99.90
9209;DHT22;4639;48.862;9.188;2023-12-20T14:59:56;6.20;99.90
9209;DHT22;4639;48.862;9.188;2023-12-20T15:02:21;6.10;99.90
9209;DHT22;4639;48.862;9.188;2023-12-20T15:04:47;6.10;99.90
9209;DHT22;4639;48.862;9.188;2023-12-20T15:07:13;6.00;99.90
9209;DHT22;4639;48.862;9.188;2023-12-20T15:09:38;6.00;99.90
9209;DHT22;4639;48.862;9.188;2023-12-20T15:12:04;5.90;99.90
9209;DHT22;4639;48.862;9.188;2023-12-20T15:14:30;5.80;99.90
9209;DHT22;4639;48.862;9.188;2023-12-20T15:16:56;5.90;99.90
9209;DHT22;4639;48.862;9.188;2023-12-20T15:19:22;5.90;99.90
9209;DHT22;4639;48.862;9.188;2023-12-20T15:21:48;5.70;99.90
9209;DHT22;4639;48.862;9.188;2023-12-20T15:24:14;6.00;99.90
9209;DHT22;4639;48.862;9.188;2023-12-20T15:26:45;6.00;99.90
9209;DHT22;4639;48.862;9.188;2023-12-20T15:29:12;6.00;99.90
9209;DHT22;4639;48.862;9.188;2023-12-20T15:31:48;6.00;99.90
9209;DHT22;4639;48.862;9.188;2023-12-20T15:34:14;6.10;99.90
9209;DHT22;4639;48.862;9.188;2023-12-20T15:36:40;6.10;99.90
9209;DHT22;4639;48.862;9.188;2023-12-20T15:39:07;6.10;99.90
9209;DHT22;4639;48.862;9.188;2023-12-20T15:41:35;6.10;99.90
9209;DHT22;4639;48.862;9.188;2023-12-20T15:44:01;6.10;99.90
9209;DHT22;4639;48.862;9.188;2023-12-20T15:46:26;6.10;99.90
9209;DHT22;4639;48.862;9.188;2023-12-20T15:48:52;6.10;99.90
9209;DHT22;4639;48.862;9.188;2023-12-20T15:51:21;6.20;99.90
9209;DHT22;4639;48.862;9.188;2023-12-20T15:53:46;6.10;99.90
9209;DHT22;4639;48.862;9.188;2023-12-20T15:56:12;6.20;99.90
9209;DHT22;4639;48.862;9.188;2023-12-20T15:58:37;6.00;99.90
9209;DHT22;4639;48.862;9.188;2023-12-20T16:01:03;6.20;99.90
9209;DHT22;4639;48.862;9.188;2023-12-20T16:03:29;6.30;99.90
9209;DHT22;4639;48.862;9.188;2023-12-20T16:05:54;6.30;99.90
9209;DHT22;4639;48.862;9.188;2023-12-20T16:08:20;6.30;99.90
9209;DHT22;4639;48.862;9.188;2023-12-20T16:10:46;6.30;99.90
9209;DHT22;4639;48.862;9.188;2023-12-20T16:13:11;6.30;99.90
9209;DHT22;4639;48.862;9.188;2023-12-20T16:15:37;6.40;99.90